Mayport, Florida
Current Conditions -  °F | °C
As of 8:52 AM on Monday 20 Oct 2014 (Local Time) from KNRB Reporting Station
Broken Clouds Broken Clouds  
Wind Chill: 75°   Ceiling: 4500
Heat Index: 75°   Visibility: 10mi
Dew Point: 61°   Wind: 8mph
Humidity: 62%   Direction: 90°E
Pressure: 30.09"   Gusts: NA
Location:  30.4°N, 81.42°W
Report Text: KNRB 201252Z 09007KT 10SM BKN045 BKN070 24/16 A3009 RMK AO2 SLP187 T02390161
Loading
Personal Weather Stations






























Interactive Weather Map
Tropical Storm Tracking
New forecast layout! Learn more

10-Day Weather Forecast

Advertisements
Track Severe Weather on mobile